Flight Track Log - Related Links

Times and Time Zones

All times are in EDT time to prevent confusion due to time zone crossing. See the N1926A flight status page for this flight to view local times or setup timezone preferences in your user account.

Time Position Orientation Groundspeed Altitude Reporting Facility
EDT Latitude Longitude Course Direction KTS MPH feet Rate Location/Type
Tue 12:55:42 PM 32.2967 -86.3683 95° East 160 184 1,500  Level Atlanta Center
Tue 12:56:24 PM 32.2933 -86.3214 95° East 186 214 3,300 2,738 Climbing Atlanta Center
Tue 12:57:25 PM 32.2864 -86.2475 96° East 214 246 6,200 2,331 Climbing Atlanta Center
Tue 12:58:25 PM 32.2811 -86.1836 96° East 243 280 8,000 1,714 Climbing Atlanta Center
Tue 12:59:38 PM 32.3039 -86.0786 76° East 304 350 10,000 1,881 Climbing Atlanta Center
Tue 01:00:39 PM 32.3675 -86.0061 44° Northeast 328 377 12,200 2,182 Climbing Atlanta Center
Tue 01:01:39 PM 32.4378 -85.9192 46° Northeast 324 373 14,400 1,983 Climbing Atlanta Center
Tue 01:02:40 PM 32.5017 -85.8417 46° Northeast 324 373 16,200 1,603 Climbing Atlanta Center
Tue 01:03:35 PM 32.5525 -85.7761 47° Northeast 336 387 17,500 1,461 Climbing Atlanta Center
Tue 01:04:35 PM 32.6206 -85.6961 45° Northeast 341 392 19,000 1,289 Climbing Atlanta Center
Tue 01:05:36 PM 32.6842 -85.6158 47° Northeast 339 390 20,100 1,082 Climbing Atlanta Center
Tue 01:07:00 PM 32.6480 -85.6899 240° Southwest  Level Estimated
Tue 01:14:00 PM 32.4666 -86.0592 240° Southwest  Level Estimated
Tue 01:15:00 PM 32.4406 -86.1118 240° Southwest  Level Estimated
Tue 01:16:00 PM 32.4146 -86.1645 240° Southwest  Level Estimated
Tue 01:17:00 PM 32.3886 -86.2170 240° Southwest  Level Estimated
Tue 01:18:00 PM 32.3625 -86.2696 240° Southwest  Level Estimated
Tue 01:19:00 PM 32.3364 -86.3221 240° Southwest  Level Estimated
Tue 01:20:00 PM 32.3103 -86.3746 240° Southwest  Level Estimated
Tue 01:21:00 PM 32.3006 -86.3940 239° Southwest  Level Estimated
Tue 01:22:00 PM 32.3006 -86.3940 239° Southwest  Level Estimated
Tue 01:23:00 PM 32.3006 -86.3940 239° Southwest  Level Estimated
Tue 01:24:00 PM 32.3006 -86.3940 239° Southwest  Level Estimated
Tue 01:25:00 PM 32.3006 -86.3940 239° Southwest  Level Estimated
Tue 01:26:00 PM 32.3006 -86.3940 239° Southwest  Level Estimated
Tue 01:27:00 PM 32.3006 -86.3940 239° Southwest  Level Estimated
Tue 01:28:00 PM 32.3006 -86.3940 239° Southwest  Level Estimated
Tue 01:29:00 PM 32.3006 -86.3940 239° Southwest  Level Estimated
Tue 01:30:00 PM 32.3006 -86.3940 239° Southwest  Level Estimated
Tue 01:31:00 PM 32.3006 -86.3940 239° Southwest  Level Estimated
Tue 01:32:00 PM 32.3006 -86.3940 239° Southwest  Level Estimated
Tue 01:33:00 PM 32.3006 -86.3940 239° Southwest  Level Estimated
Tue 01:34:00 PM 32.3006 -86.3940 239° Southwest  Level Estimated
Tue 01:35:00 PM 32.3006 -86.3940 239° Southwest  Level Estimated

Login

Don't have an account? Register now (free) for customized features, flight alerts, and more!